sensor_id;sensor_type;location;lat;lon;timestamp;P1;durP1;ratioP1;P2;durP2;ratioP2
5137;SDS011;53959;53.626;11.410;2023-03-01T00:01:58;7.60;;;5.13;;
5137;SDS011;53959;53.626;11.410;2023-03-01T00:04:23;11.17;;;5.70;;
5137;SDS011;53959;53.626;11.410;2023-03-01T00:06:49;6.00;;;4.97;;
5137;SDS011;53959;53.626;11.410;2023-03-01T00:09:15;9.87;;;5.83;;
5137;SDS011;53959;53.626;11.410;2023-03-01T00:11:40;10.87;;;5.30;;
5137;SDS011;53959;53.626;11.410;2023-03-01T00:14:06;9.27;;;5.40;;
5137;SDS011;53959;53.626;11.410;2023-03-01T00:16:38;19.10;;;6.63;;
5137;SDS011;53959;53.626;11.410;2023-03-01T00:19:06;8.00;;;5.73;;
5137;SDS011;53959;53.626;11.410;2023-03-01T00:21:34;7.93;;;5.00;;
5137;SDS011;53959;53.626;11.410;2023-03-01T00:24:00;9.47;;;5.30;;
5137;SDS011;53959;53.626;11.410;2023-03-01T00:26:26;7.90;;;4.87;;
5137;SDS011;53959;53.626;11.410;2023-03-01T00:28:51;12.03;;;6.10;;
5137;SDS011;53959;53.626;11.410;2023-03-01T00:31:19;7.40;;;5.55;;
5137;SDS011;53959;53.626;11.410;2023-03-01T00:33:45;7.83;;;5.70;;
5137;SDS011;53959;53.626;11.410;2023-03-01T00:36:12;7.70;;;4.83;;
5137;SDS011;53959;53.626;11.410;2023-03-01T00:38:40;6.13;;;4.40;;
5137;SDS011;53959;53.626;11.410;2023-03-01T00:41:11;7.37;;;5.37;;
5137;SDS011;53959;53.626;11.410;2023-03-01T00:43:39;7.03;;;4.07;;
5137;SDS011;53959;53.626;11.410;2023-03-01T00:46:06;8.30;;;4.50;;
5137;SDS011;53959;53.626;11.410;2023-03-01T00:48:34;7.43;;;4.50;;
5137;SDS011;53959;53.626;11.410;2023-03-01T00:53:32;7.47;;;5.13;;
5137;SDS011;53959;53.626;11.410;2023-03-01T00:55:57;7.27;;;4.33;;
5137;SDS011;53959;53.626;11.410;2023-03-01T00:58:23;10.03;;;4.67;;
5137;SDS011;53959;53.626;11.410;2023-03-01T01:00:48;5.83;;;4.70;;
5137;SDS011;53959;53.626;11.410;2023-03-01T01:03:14;8.60;;;4.73;;
5137;SDS011;53959;53.626;11.410;2023-03-01T01:05:39;3.77;;;3.43;;
5137;SDS011;53959;53.626;11.410;2023-03-01T01:08:05;6.33;;;4.33;;
5137;SDS011;53959;53.626;11.410;2023-03-01T01:10:30;7.33;;;4.17;;
5137;SDS011;53959;53.626;11.410;2023-03-01T01:12:59;6.90;;;4.47;;
5137;SDS011;53959;53.626;11.410;2023-03-01T01:15:24;6.53;;;5.03;;
5137;SDS011;53959;53.626;11.410;2023-03-01T01:17:49;6.07;;;4.60;;
5137;SDS011;53959;53.626;11.410;2023-03-01T01:20:14;7.73;;;5.50;;
5137;SDS011;53959;53.626;11.410;2023-03-01T01:22:40;9.50;;;4.60;;
5137;SDS011;53959;53.626;11.410;2023-03-01T01:25:05;8.97;;;4.73;;
5137;SDS011;53959;53.626;11.410;2023-03-01T01:27:31;6.47;;;4.90;;
5137;SDS011;53959;53.626;11.410;2023-03-01T01:29:56;6.90;;;5.10;;
5137;SDS011;53959;53.626;11.410;2023-03-01T01:32:22;12.43;;;5.53;;
5137;SDS011;53959;53.626;11.410;2023-03-01T01:34:47;9.83;;;5.97;;
5137;SDS011;53959;53.626;11.410;2023-03-01T01:37:12;8.30;;;6.07;;
5137;SDS011;53959;53.626;11.410;2023-03-01T01:39:38;11.23;;;5.33;;
5137;SDS011;53959;53.626;11.410;2023-03-01T01:42:03;10.90;;;5.73;;
5137;SDS011;53959;53.626;11.410;2023-03-01T01:44:29;12.40;;;6.00;;
5137;SDS011;53959;53.626;11.410;2023-03-01T01:47:08;10.83;;;6.00;;
5137;SDS011;53959;53.626;11.410;2023-03-01T01:49:46;7.77;;;5.17;;
5137;SDS011;53959;53.626;11.410;2023-03-01T01:52:18;8.33;;;4.90;;
5137;SDS011;53959;53.626;11.410;2023-03-01T01:54:50;5.10;;;4.33;;
5137;SDS011;53959;53.626;11.410;2023-03-01T01:57:27;5.13;;;4.60;;
5137;SDS011;53959;53.626;11.410;2023-03-01T02:00:00;9.70;;;5.53;;
5137;SDS011;53959;53.626;11.410;2023-03-01T02:02:38;5.70;;;4.63;;
5137;SDS011;53959;53.626;11.410;2023-03-01T02:05:14;6.80;;;4.00;;
5137;SDS011;53959;53.626;11.410;2023-03-01T02:08:01;9.70;;;4.20;;
5137;SDS011;53959;53.626;11.410;2023-03-01T02:10:27;11.80;;;4.93;;
5137;SDS011;53959;53.626;11.410;2023-03-01T02:12:54;18.10;;;5.60;;
5137;SDS011;53959;53.626;11.410;2023-03-01T02:15:21;8.93;;;5.03;;
5137;SDS011;53959;53.626;11.410;2023-03-01T02:17:48;9.90;;;5.27;;
5137;SDS011;53959;53.626;11.410;2023-03-01T02:20:20;9.10;;;5.50;;
5137;SDS011;53959;53.626;11.410;2023-03-01T02:22:53;7.20;;;5.17;;
5137;SDS011;53959;53.626;11.410;2023-03-01T02:25:25;8.33;;;4.53;;
5137;SDS011;53959;53.626;11.410;2023-03-01T02:30:46;11.43;;;5.00;;
5137;SDS011;53959;53.626;11.410;2023-03-01T02:33:32;7.27;;;4.33;;
5137;SDS011;53959;53.626;11.410;2023-03-01T02:36:02;11.90;;;4.67;;
5137;SDS011;53959;53.626;11.410;2023-03-01T02:38:29;9.47;;;5.33;;
5137;SDS011;53959;53.626;11.410;2023-03-01T02:40:56;6.47;;;4.77;;
5137;SDS011;53959;53.626;11.410;2023-03-01T02:43:22;8.73;;;5.43;;
5137;SDS011;53959;53.626;11.410;2023-03-01T02:45:52;11.83;;;4.70;;
5137;SDS011;53959;53.626;11.410;2023-03-01T02:48:19;5.13;;;4.43;;
5137;SDS011;53959;53.626;11.410;2023-03-01T02:53:42;7.00;;;5.23;;
5137;SDS011;53959;53.626;11.410;2023-03-01T02:56:20;11.20;;;6.13;;
5137;SDS011;53959;53.626;11.410;2023-03-01T02:58:45;9.77;;;5.33;;
5137;SDS011;53959;53.626;11.410;2023-03-01T03:01:15;9.13;;;5.80;;
5137;SDS011;53959;53.626;11.410;2023-03-01T03:03:41;7.87;;;5.30;;
5137;SDS011;53959;53.626;11.410;2023-03-01T03:06:07;9.80;;;5.80;;
5137;SDS011;53959;53.626;11.410;2023-03-01T03:08:33;6.93;;;4.50;;
5137;SDS011;53959;53.626;11.410;2023-03-01T03:10:58;8.30;;;5.07;;
5137;SDS011;53959;53.626;11.410;2023-03-01T03:13:24;12.87;;;4.80;;
5137;SDS011;53959;53.626;11.410;2023-03-01T03:15:56;9.87;;;5.10;;
5137;SDS011;53959;53.626;11.410;2023-03-01T03:18:22;7.43;;;5.23;;
5137;SDS011;53959;53.626;11.410;2023-03-01T03:20:51;10.60;;;5.03;;
5137;SDS011;53959;53.626;11.410;2023-03-01T03:23:18;9.60;;;4.10;;
5137;SDS011;53959;53.626;11.410;2023-03-01T03:25:49;14.63;;;5.50;;
5137;SDS011;53959;53.626;11.410;2023-03-01T03:28:15;9.60;;;5.10;;
5137;SDS011;53959;53.626;11.410;2023-03-01T03:30:41;8.33;;;4.47;;
5137;SDS011;53959;53.626;11.410;2023-03-01T03:33:07;8.80;;;5.17;;
5137;SDS011;53959;53.626;11.410;2023-03-01T03:35:37;8.80;;;5.00;;
5137;SDS011;53959;53.626;11.410;2023-03-01T03:38:06;10.43;;;5.03;;
5137;SDS011;53959;53.626;11.410;2023-03-01T03:40:36;6.67;;;4.70;;
5137;SDS011;53959;53.626;11.410;2023-03-01T03:43:04;8.00;;;4.67;;
5137;SDS011;53959;53.626;11.410;2023-03-01T03:45:32;8.90;;;4.77;;
5137;SDS011;53959;53.626;11.410;2023-03-01T03:48:00;6.57;;;4.60;;
5137;SDS011;53959;53.626;11.410;2023-03-01T03:50:28;7.90;;;4.63;;
5137;SDS011;53959;53.626;11.410;2023-03-01T03:52:53;6.90;;;4.57;;
5137;SDS011;53959;53.626;11.410;2023-03-01T03:55:19;10.53;;;5.03;;
5137;SDS011;53959;53.626;11.410;2023-03-01T03:57:45;6.20;;;4.40;;
5137;SDS011;53959;53.626;11.410;2023-03-01T04:00:18;6.40;;;5.13;;
5137;SDS011;53959;53.626;11.410;2023-03-01T04:02:45;9.60;;;5.00;;
5137;SDS011;53959;53.626;11.410;2023-03-01T04:05:12;8.33;;;4.47;;
5137;SDS011;53959;53.626;11.410;2023-03-01T04:07:39;5.83;;;4.33;;
5137;SDS011;53959;53.626;11.410;2023-03-01T04:10:06;4.80;;;4.00;;
5137;SDS011;53959;53.626;11.410;2023-03-01T04:12:36;5.80;;;4.43;;
5137;SDS011;53959;53.626;11.410;2023-03-01T04:15:06;7.67;;;5.00;;
5137;SDS011;53959;53.626;11.410;2023-03-01T04:17:45;11.30;;;5.10;;
5137;SDS011;53959;53.626;11.410;2023-03-01T04:20:12;6.77;;;4.60;;
5137;SDS011;53959;53.626;11.410;2023-03-01T04:22:39;8.93;;;4.63;;
5137;SDS011;53959;53.626;11.410;2023-03-01T04:25:05;9.90;;;4.80;;
5137;SDS011;53959;53.626;11.410;2023-03-01T04:27:35;7.57;;;4.73;;
5137;SDS011;53959;53.626;11.410;2023-03-01T04:30:01;6.73;;;4.30;;
5137;SDS011;53959;53.626;11.410;2023-03-01T04:32:28;9.30;;;5.43;;
5137;SDS011;53959;53.626;11.410;2023-03-01T04:34:53;8.33;;;4.50;;
5137;SDS011;53959;53.626;11.410;2023-03-01T04:37:18;9.53;;;4.40;;
5137;SDS011;53959;53.626;11.410;2023-03-01T04:39:44;6.90;;;4.60;;
5137;SDS011;53959;53.626;11.410;2023-03-01T04:42:12;6.13;;;4.57;;
5137;SDS011;53959;53.626;11.410;2023-03-01T04:44:38;13.97;;;4.40;;
5137;SDS011;53959;53.626;11.410;2023-03-01T04:47:04;7.70;;;4.80;;
5137;SDS011;53959;53.626;11.410;2023-03-01T04:49:29;7.70;;;4.40;;
5137;SDS011;53959;53.626;11.410;2023-03-01T04:51:54;7.70;;;4.77;;
5137;SDS011;53959;53.626;11.410;2023-03-01T04:54:20;11.93;;;4.97;;
5137;SDS011;53959;53.626;11.410;2023-03-01T04:56:46;6.63;;;4.53;;
5137;SDS011;53959;53.626;11.410;2023-03-01T04:59:11;6.87;;;4.43;;
5137;SDS011;53959;53.626;11.410;2023-03-01T05:01:37;6.20;;;4.33;;
5137;SDS011;53959;53.626;11.410;2023-03-01T05:04:04;7.37;;;4.53;;
5137;SDS011;53959;53.626;11.410;2023-03-01T05:06:30;5.37;;;4.30;;
5137;SDS011;53959;53.626;11.410;2023-03-01T05:08:56;8.20;;;4.67;;
5137;SDS011;53959;53.626;11.410;2023-03-01T05:11:21;14.57;;;5.20;;
5137;SDS011;53959;53.626;11.410;2023-03-01T05:13:47;6.67;;;4.30;;
5137;SDS011;53959;53.626;11.410;2023-03-01T05:16:12;7.37;;;4.60;;
5137;SDS011;53959;53.626;11.410;2023-03-01T05:18:38;10.53;;;4.60;;
5137;SDS011;53959;53.626;11.410;2023-03-01T05:21:13;7.10;;;4.60;;
5137;SDS011;53959;53.626;11.410;2023-03-01T05:23:42;8.70;;;4.50;;
5137;SDS011;53959;53.626;11.410;2023-03-01T05:26:07;12.80;;;4.60;;
5137;SDS011;53959;53.626;11.410;2023-03-01T05:28:33;6.10;;;4.63;;
5137;SDS011;53959;53.626;11.410;2023-03-01T05:30:59;5.53;;;4.60;;
5137;SDS011;53959;53.626;11.410;2023-03-01T05:33:25;7.23;;;4.30;;
5137;SDS011;53959;53.626;11.410;2023-03-01T05:35:51;10.97;;;4.90;;
5137;SDS011;53959;53.626;11.410;2023-03-01T05:38:17;8.10;;;5.17;;
5137;SDS011;53959;53.626;11.410;2023-03-01T05:40:44;14.80;;;5.10;;
5137;SDS011;53959;53.626;11.410;2023-03-01T05:43:11;7.60;;;4.30;;
5137;SDS011;53959;53.626;11.410;2023-03-01T05:45:37;8.90;;;4.80;;
5137;SDS011;53959;53.626;11.410;2023-03-01T05:48:03;8.83;;;4.97;;
5137;SDS011;53959;53.626;11.410;2023-03-01T05:50:32;7.13;;;4.87;;
5137;SDS011;53959;53.626;11.410;2023-03-01T05:53:03;7.70;;;5.20;;
5137;SDS011;53959;53.626;11.410;2023-03-01T05:55:33;9.67;;;4.70;;
5137;SDS011;53959;53.626;11.410;2023-03-01T05:58:00;6.93;;;4.47;;
5137;SDS011;53959;53.626;11.410;2023-03-01T06:00:27;8.93;;;5.43;;
5137;SDS011;53959;53.626;11.410;2023-03-01T06:02:53;17.17;;;5.90;;
5137;SDS011;53959;53.626;11.410;2023-03-01T06:05:20;7.80;;;4.57;;
5137;SDS011;53959;53.626;11.410;2023-03-01T06:07:46;7.90;;;5.03;;
5137;SDS011;53959;53.626;11.410;2023-03-01T06:10:11;9.07;;;4.77;;
5137;SDS011;53959;53.626;11.410;2023-03-01T06:12:38;8.90;;;5.73;;
5137;SDS011;53959;53.626;11.410;2023-03-01T06:15:05;9.17;;;5.40;;
5137;SDS011;53959;53.626;11.410;2023-03-01T06:17:32;9.60;;;5.77;;
5137;SDS011;53959;53.626;11.410;2023-03-01T06:20:07;9.67;;;6.10;;
5137;SDS011;53959;53.626;11.410;2023-03-01T06:22:34;13.63;;;6.47;;
5137;SDS011;53959;53.626;11.410;2023-03-01T06:25:00;17.00;;;5.40;;
5137;SDS011;53959;53.626;11.410;2023-03-01T06:27:25;11.60;;;6.47;;
5137;SDS011;53959;53.626;11.410;2023-03-01T06:29:50;10.70;;;5.93;;
5137;SDS011;53959;53.626;11.410;2023-03-01T06:32:16;12.93;;;5.40;;
5137;SDS011;53959;53.626;11.410;2023-03-01T06:34:41;9.80;;;5.30;;
5137;SDS011;53959;53.626;11.410;2023-03-01T06:37:07;14.23;;;4.80;;
5137;SDS011;53959;53.626;11.410;2023-03-01T06:39:32;13.10;;;4.83;;
5137;SDS011;53959;53.626;11.410;2023-03-01T06:41:58;8.10;;;5.07;;
5137;SDS011;53959;53.626;11.410;2023-03-01T06:44:24;15.63;;;5.77;;
5137;SDS011;53959;53.626;11.410;2023-03-01T06:46:49;9.13;;;5.80;;
5137;SDS011;53959;53.626;11.410;2023-03-01T06:49:15;11.40;;;5.00;;
5137;SDS011;53959;53.626;11.410;2023-03-01T06:51:41;11.43;;;5.70;;
5137;SDS011;53959;53.626;11.410;2023-03-01T06:54:07;8.87;;;6.00;;
5137;SDS011;53959;53.626;11.410;2023-03-01T06:56:32;12.13;;;6.07;;
5137;SDS011;53959;53.626;11.410;2023-03-01T06:58:58;16.00;;;5.47;;
5137;SDS011;53959;53.626;11.410;2023-03-01T07:01:23;7.90;;;5.53;;
5137;SDS011;53959;53.626;11.410;2023-03-01T07:03:49;16.43;;;5.90;;
5137;SDS011;53959;53.626;11.410;2023-03-01T07:06:14;15.10;;;6.90;;
5137;SDS011;53959;53.626;11.410;2023-03-01T07:08:39;14.70;;;6.33;;
5137;SDS011;53959;53.626;11.410;2023-03-01T07:11:05;8.10;;;5.30;;
5137;SDS011;53959;53.626;11.410;2023-03-01T07:13:30;12.20;;;6.43;;
5137;SDS011;53959;53.626;11.410;2023-03-01T07:15:56;12.47;;;5.90;;
5137;SDS011;53959;53.626;11.410;2023-03-01T07:18:22;10.90;;;6.43;;
5137;SDS011;53959;53.626;11.410;2023-03-01T07:20:47;10.10;;;5.60;;
5137;SDS011;53959;53.626;11.410;2023-03-01T07:23:13;16.10;;;7.07;;
5137;SDS011;53959;53.626;11.410;2023-03-01T07:25:38;9.37;;;5.77;;
5137;SDS011;53959;53.626;11.410;2023-03-01T07:28:03;24.57;;;5.70;;
5137;SDS011;53959;53.626;11.410;2023-03-01T07:30:29;8.00;;;5.60;;
5137;SDS011;53959;53.626;11.410;2023-03-01T07:32:55;8.73;;;5.70;;
5137;SDS011;53959;53.626;11.410;2023-03-01T07:35:22;22.37;;;7.20;;
5137;SDS011;53959;53.626;11.410;2023-03-01T07:37:48;16.23;;;8.33;;
5137;SDS011;53959;53.626;11.410;2023-03-01T07:40:14;15.03;;;7.63;;
5137;SDS011;53959;53.626;11.410;2023-03-01T07:42:39;17.87;;;7.90;;
5137;SDS011;53959;53.626;11.410;2023-03-01T07:45:05;16.63;;;8.03;;
5137;SDS011;53959;53.626;11.410;2023-03-01T07:47:31;13.60;;;6.60;;
5137;SDS011;53959;53.626;11.410;2023-03-01T07:49:57;11.43;;;7.40;;
5137;SDS011;53959;53.626;11.410;2023-03-01T07:52:22;23.30;;;6.97;;
5137;SDS011;53959;53.626;11.410;2023-03-01T07:54:47;22.80;;;7.77;;
5137;SDS011;53959;53.626;11.410;2023-03-01T07:57:13;12.20;;;6.50;;
5137;SDS011;53959;53.626;11.410;2023-03-01T07:59:38;15.60;;;7.23;;
5137;SDS011;53959;53.626;11.410;2023-03-01T08:02:03;17.00;;;8.20;;
5137;SDS011;53959;53.626;11.410;2023-03-01T08:04:30;15.70;;;7.87;;
5137;SDS011;53959;53.626;11.410;2023-03-01T08:06:56;16.90;;;7.07;;
5137;SDS011;53959;53.626;11.410;2023-03-01T08:09:21;15.57;;;8.43;;
5137;SDS011;53959;53.626;11.410;2023-03-01T08:11:47;12.47;;;7.30;;
5137;SDS011;53959;53.626;11.410;2023-03-01T08:14:12;16.67;;;8.53;;
5137;SDS011;53959;53.626;11.410;2023-03-01T08:16:38;19.27;;;8.80;;
5137;SDS011;53959;53.626;11.410;2023-03-01T08:19:04;19.90;;;7.83;;
5137;SDS011;53959;53.626;11.410;2023-03-01T08:21:31;20.53;;;8.77;;
5137;SDS011;53959;53.626;11.410;2023-03-01T08:23:57;20.13;;;9.00;;
5137;SDS011;53959;53.626;11.410;2023-03-01T08:26:22;14.10;;;8.40;;
5137;SDS011;53959;53.626;11.410;2023-03-01T08:28:48;19.27;;;7.20;;
5137;SDS011;53959;53.626;11.410;2023-03-01T08:31:22;13.70;;;8.33;;
5137;SDS011;53959;53.626;11.410;2023-03-01T08:33:48;15.60;;;8.07;;
5137;SDS011;53959;53.626;11.410;2023-03-01T08:36:20;18.77;;;8.43;;
5137;SDS011;53959;53.626;11.410;2023-03-01T08:38:46;14.87;;;8.47;;
5137;SDS011;53959;53.626;11.410;2023-03-01T08:41:11;22.40;;;8.00;;
5137;SDS011;53959;53.626;11.410;2023-03-01T08:43:37;17.67;;;8.80;;
5137;SDS011;53959;53.626;11.410;2023-03-01T08:46:02;19.23;;;7.20;;
5137;SDS011;53959;53.626;11.410;2023-03-01T08:48:28;23.93;;;8.70;;
5137;SDS011;53959;53.626;11.410;2023-03-01T08:50:54;16.10;;;9.43;;
5137;SDS011;53959;53.626;11.410;2023-03-01T08:53:19;23.87;;;8.50;;
5137;SDS011;53959;53.626;11.410;2023-03-01T08:55:45;18.73;;;9.00;;
5137;SDS011;53959;53.626;11.410;2023-03-01T08:58:10;21.83;;;10.17;;
5137;SDS011;53959;53.626;11.410;2023-03-01T09:00:37;29.87;;;10.10;;
5137;SDS011;53959;53.626;11.410;2023-03-01T09:03:03;20.40;;;9.03;;
5137;SDS011;53959;53.626;11.410;2023-03-01T09:05:31;16.00;;;8.60;;
5137;SDS011;53959;53.626;11.410;2023-03-01T09:07:57;24.00;;;10.37;;
5137;SDS011;53959;53.626;11.410;2023-03-01T09:10:23;19.57;;;9.80;;
5137;SDS011;53959;53.626;11.410;2023-03-01T09:12:48;25.80;;;10.63;;
5137;SDS011;53959;53.626;11.410;2023-03-01T09:15:13;17.30;;;9.57;;
5137;SDS011;53959;53.626;11.410;2023-03-01T09:17:39;24.43;;;9.50;;
5137;SDS011;53959;53.626;11.410;2023-03-01T09:20:04;19.20;;;10.13;;
5137;SDS011;53959;53.626;11.410;2023-03-01T09:22:32;20.57;;;9.90;;
5137;SDS011;53959;53.626;11.410;2023-03-01T09:24:58;22.00;;;9.73;;
5137;SDS011;53959;53.626;11.410;2023-03-01T09:27:24;27.03;;;11.43;;
5137;SDS011;53959;53.626;11.410;2023-03-01T09:29:50;26.70;;;12.10;;
5137;SDS011;53959;53.626;11.410;2023-03-01T09:32:15;22.70;;;10.80;;
5137;SDS011;53959;53.626;11.410;2023-03-01T09:34:40;20.17;;;10.87;;
5137;SDS011;53959;53.626;11.410;2023-03-01T09:37:24;30.33;;;11.07;;
5137;SDS011;53959;53.626;11.410;2023-03-01T09:39:50;22.50;;;11.60;;
5137;SDS011;53959;53.626;11.410;2023-03-01T09:42:15;26.23;;;11.73;;
5137;SDS011;53959;53.626;11.410;2023-03-01T09:44:46;22.00;;;10.97;;
5137;SDS011;53959;53.626;11.410;2023-03-01T09:47:20;21.87;;;11.17;;
5137;SDS011;53959;53.626;11.410;2023-03-01T09:52:42;23.90;;;11.17;;
5137;SDS011;53959;53.626;11.410;2023-03-01T09:55:12;23.87;;;11.10;;
5137;SDS011;53959;53.626;11.410;2023-03-01T09:57:45;20.90;;;11.03;;
5137;SDS011;53959;53.626;11.410;2023-03-01T10:02:51;25.23;;;12.37;;
5137;SDS011;53959;53.626;11.410;2023-03-01T10:10:47;25.00;;;12.13;;
5137;SDS011;53959;53.626;11.410;2023-03-01T10:13:15;29.27;;;13.30;;
5137;SDS011;53959;53.626;11.410;2023-03-01T10:15:49;27.13;;;11.40;;
5137;SDS011;53959;53.626;11.410;2023-03-01T10:18:21;28.90;;;12.27;;
5137;SDS011;53959;53.626;11.410;2023-03-01T10:20:58;26.03;;;12.17;;
5137;SDS011;53959;53.626;11.410;2023-03-01T10:23:26;22.10;;;11.67;;
5137;SDS011;53959;53.626;11.410;2023-03-01T10:25:56;19.63;;;12.00;;
5137;SDS011;53959;53.626;11.410;2023-03-01T10:31:00;22.47;;;12.43;;
5137;SDS011;53959;53.626;11.410;2023-03-01T10:35:57;19.77;;;11.03;;
5137;SDS011;53959;53.626;11.410;2023-03-01T10:38:23;18.80;;;10.63;;
5137;SDS011;53959;53.626;11.410;2023-03-01T10:40:56;22.00;;;11.63;;
5137;SDS011;53959;53.626;11.410;2023-03-01T10:43:22;25.43;;;10.87;;
5137;SDS011;53959;53.626;11.410;2023-03-01T10:45:49;19.27;;;10.50;;
5137;SDS011;53959;53.626;11.410;2023-03-01T10:48:16;28.03;;;10.90;;
5137;SDS011;53959;53.626;11.410;2023-03-01T10:50:51;19.73;;;11.70;;
5137;SDS011;53959;53.626;11.410;2023-03-01T10:53:43;19.80;;;11.10;;
5137;SDS011;53959;53.626;11.410;2023-03-01T10:56:15;20.80;;;10.80;;
5137;SDS011;53959;53.626;11.410;2023-03-01T10:59:03;24.27;;;11.20;;
5137;SDS011;53959;53.626;11.410;2023-03-01T11:01:29;26.27;;;12.27;;
5137;SDS011;53959;53.626;11.410;2023-03-01T11:06:34;27.40;;;13.10;;
5137;SDS011;53959;53.626;11.410;2023-03-01T11:09:14;19.87;;;10.70;;
5137;SDS011;53959;53.626;11.410;2023-03-01T11:11:51;23.57;;;11.23;;
5137;SDS011;53959;53.626;11.410;2023-03-01T11:14:22;20.17;;;11.50;;
5137;SDS011;53959;53.626;11.410;2023-03-01T11:16:57;32.53;;;12.70;;
5137;SDS011;53959;53.626;11.410;2023-03-01T11:19:25;23.27;;;12.30;;
5137;SDS011;53959;53.626;11.410;2023-03-01T11:24:36;28.40;;;11.93;;
5137;SDS011;53959;53.626;11.410;2023-03-01T11:27:08;25.33;;;11.10;;
5137;SDS011;53959;53.626;11.410;2023-03-01T11:29:46;19.63;;;11.13;;
5137;SDS011;53959;53.626;11.410;2023-03-01T11:32:17;25.80;;;12.47;;
5137;SDS011;53959;53.626;11.410;2023-03-01T11:35:00;22.17;;;11.80;;
5137;SDS011;53959;53.626;11.410;2023-03-01T11:37:38;23.03;;;11.83;;
5137;SDS011;53959;53.626;11.410;2023-03-01T11:40:33;24.87;;;12.47;;
5137;SDS011;53959;53.626;11.410;2023-03-01T11:43:15;21.17;;;11.30;;
5137;SDS011;53959;53.626;11.410;2023-03-01T11:45:56;20.70;;;11.53;;
5137;SDS011;53959;53.626;11.410;2023-03-01T11:54:44;20.43;;;12.33;;
5137;SDS011;53959;53.626;11.410;2023-03-01T12:05:42;23.33;;;11.30;;
5137;SDS011;53959;53.626;11.410;2023-03-01T12:13:56;30.50;;;13.17;;
5137;SDS011;53959;53.626;11.410;2023-03-01T12:16:40;19.67;;;12.00;;
5137;SDS011;53959;53.626;11.410;2023-03-01T12:19:53;25.93;;;13.60;;
5137;SDS011;53959;53.626;11.410;2023-03-01T12:22:42;29.57;;;11.90;;
5137;SDS011;53959;53.626;11.410;2023-03-01T12:30:42;26.47;;;11.90;;
5137;SDS011;53959;53.626;11.410;2023-03-01T12:38:41;16.53;;;7.87;;
5137;SDS011;53959;53.626;11.410;2023-03-01T12:44:07;11.17;;;6.63;;
5137;SDS011;53959;53.626;11.410;2023-03-01T12:49:38;7.67;;;5.97;;
5137;SDS011;53959;53.626;11.410;2023-03-01T12:52:13;8.20;;;4.90;;
5137;SDS011;53959;53.626;11.410;2023-03-01T12:54:44;9.40;;;4.70;;
5137;SDS011;53959;53.626;11.410;2023-03-01T12:57:16;6.40;;;4.30;;
5137;SDS011;53959;53.626;11.410;2023-03-01T13:02:50;4.53;;;3.70;;
5137;SDS011;53959;53.626;11.410;2023-03-01T13:05:27;6.80;;;3.47;;
5137;SDS011;53959;53.626;11.410;2023-03-01T13:08:19;7.03;;;4.53;;
5137;SDS011;53959;53.626;11.410;2023-03-01T13:10:57;5.80;;;5.00;;
5137;SDS011;53959;53.626;11.410;2023-03-01T13:13:25;9.90;;;6.30;;
5137;SDS011;53959;53.626;11.410;2023-03-01T13:15:52;10.53;;;6.57;;
5137;SDS011;53959;53.626;11.410;2023-03-01T13:20:54;10.73;;;6.73;;
5137;SDS011;53959;53.626;11.410;2023-03-01T13:30:56;14.07;;;7.67;;
5137;SDS011;53959;53.626;11.410;2023-03-01T13:35:48;12.83;;;7.13;;
5137;SDS011;53959;53.626;11.410;2023-03-01T13:41:03;12.13;;;8.10;;
5137;SDS011;53959;53.626;11.410;2023-03-01T13:43:40;13.20;;;9.50;;
5137;SDS011;53959;53.626;11.410;2023-03-01T13:46:11;18.80;;;9.83;;
5137;SDS011;53959;53.626;11.410;2023-03-01T13:48:42;15.80;;;11.00;;
5137;SDS011;53959;53.626;11.410;2023-03-01T13:51:12;18.73;;;13.10;;
5137;SDS011;53959;53.626;11.410;2023-03-01T13:53:43;21.00;;;13.97;;
5137;SDS011;53959;53.626;11.410;2023-03-01T13:56:26;22.93;;;14.90;;
5137;SDS011;53959;53.626;11.410;2023-03-01T13:58:54;25.03;;;15.37;;
5137;SDS011;53959;53.626;11.410;2023-03-01T14:01:26;28.73;;;16.90;;
5137;SDS011;53959;53.626;11.410;2023-03-01T14:03:54;29.93;;;16.80;;
5137;SDS011;53959;53.626;11.410;2023-03-01T14:06:21;36.23;;;19.37;;
5137;SDS011;53959;53.626;11.410;2023-03-01T14:08:50;29.87;;;17.30;;
5137;SDS011;53959;53.626;11.410;2023-03-01T14:14:23;31.60;;;18.73;;
5137;SDS011;53959;53.626;11.410;2023-03-01T14:19:57;35.07;;;19.90;;
5137;SDS011;53959;53.626;11.410;2023-03-01T14:22:24;45.63;;;22.70;;
5137;SDS011;53959;53.626;11.410;2023-03-01T14:24:57;43.13;;;21.77;;
5137;SDS011;53959;53.626;11.410;2023-03-01T14:27:25;50.47;;;23.70;;
5137;SDS011;53959;53.626;11.410;2023-03-01T14:29:55;50.30;;;25.57;;
5137;SDS011;53959;53.626;11.410;2023-03-01T14:32:27;53.03;;;27.63;;
5137;SDS011;53959;53.626;11.410;2023-03-01T14:34:53;62.77;;;27.63;;
5137;SDS011;53959;53.626;11.410;2023-03-01T14:37:27;55.60;;;29.10;;
5137;SDS011;53959;53.626;11.410;2023-03-01T14:39:55;70.87;;;31.03;;
5137;SDS011;53959;53.626;11.410;2023-03-01T14:42:22;81.60;;;33.53;;
5137;SDS011;53959;53.626;11.410;2023-03-01T14:44:51;74.53;;;31.90;;
5137;SDS011;53959;53.626;11.410;2023-03-01T14:47:25;70.23;;;32.90;;
5137;SDS011;53959;53.626;11.410;2023-03-01T14:49:56;63.60;;;30.10;;
5137;SDS011;53959;53.626;11.410;2023-03-01T14:52:25;64.17;;;29.97;;
5137;SDS011;53959;53.626;11.410;2023-03-01T14:54:59;65.60;;;31.07;;
5137;SDS011;53959;53.626;11.410;2023-03-01T14:57:27;61.50;;;28.10;;
5137;SDS011;53959;53.626;11.410;2023-03-01T14:59:53;55.20;;;25.07;;
5137;SDS011;53959;53.626;11.410;2023-03-01T15:02:23;56.07;;;26.80;;
5137;SDS011;53959;53.626;11.410;2023-03-01T15:05:00;64.17;;;26.70;;
5137;SDS011;53959;53.626;11.410;2023-03-01T15:07:33;55.37;;;24.90;;
5137;SDS011;53959;53.626;11.410;2023-03-01T15:10:03;61.17;;;26.70;;
5137;SDS011;53959;53.626;11.410;2023-03-01T15:14:56;55.63;;;23.10;;
5137;SDS011;53959;53.626;11.410;2023-03-01T15:17:32;48.10;;;21.00;;
5137;SDS011;53959;53.626;11.410;2023-03-01T15:20:03;48.67;;;22.60;;
5137;SDS011;53959;53.626;11.410;2023-03-01T15:22:31;52.87;;;23.07;;
5137;SDS011;53959;53.626;11.410;2023-03-01T15:24:57;48.53;;;22.03;;
5137;SDS011;53959;53.626;11.410;2023-03-01T15:27:23;50.10;;;21.97;;
5137;SDS011;53959;53.626;11.410;2023-03-01T15:29:51;60.33;;;23.37;;
5137;SDS011;53959;53.626;11.410;2023-03-01T15:32:27;58.87;;;25.87;;
5137;SDS011;53959;53.626;11.410;2023-03-01T15:34:58;53.40;;;24.47;;
5137;SDS011;53959;53.626;11.410;2023-03-01T15:37:44;68.57;;;26.57;;
5137;SDS011;53959;53.626;11.410;2023-03-01T15:40:18;61.03;;;25.27;;
5137;SDS011;53959;53.626;11.410;2023-03-01T15:42:46;75.13;;;28.73;;
5137;SDS011;53959;53.626;11.410;2023-03-01T15:45:20;93.40;;;31.43;;
5137;SDS011;53959;53.626;11.410;2023-03-01T15:47:52;78.00;;;29.40;;
5137;SDS011;53959;53.626;11.410;2023-03-01T15:50:23;78.07;;;31.60;;
5137;SDS011;53959;53.626;11.410;2023-03-01T15:52:53;97.00;;;30.10;;
5137;SDS011;53959;53.626;11.410;2023-03-01T15:55:20;93.23;;;31.00;;
5137;SDS011;53959;53.626;11.410;2023-03-01T15:58:09;84.33;;;32.97;;
5137;SDS011;53959;53.626;11.410;2023-03-01T16:00:35;62.80;;;27.20;;
5137;SDS011;53959;53.626;11.410;2023-03-01T16:03:01;81.03;;;31.03;;
5137;SDS011;53959;53.626;11.410;2023-03-01T16:05:30;87.63;;;25.23;;
5137;SDS011;53959;53.626;11.410;2023-03-01T16:07:57;65.07;;;27.53;;
5137;SDS011;53959;53.626;11.410;2023-03-01T16:10:23;69.53;;;26.93;;
5137;SDS011;53959;53.626;11.410;2023-03-01T16:12:49;72.60;;;19.27;;
5137;SDS011;53959;53.626;11.410;2023-03-01T16:15:27;41.03;;;16.87;;
5137;SDS011;53959;53.626;11.410;2023-03-01T16:17:55;32.50;;;17.03;;
5137;SDS011;53959;53.626;11.410;2023-03-01T16:20:23;59.97;;;16.00;;